Terminal Aerodrome Forecast
Issued by NWS Topeka, KS

Home | Current Version | Previous Version | Graphics & Text | Print | Product List | Glossary Off
Versions: 1 2 3 4 5 6 7 8 9 10 11 12 13 14 15

000
FTUS43 KTOP 010500
TAFTOP
TAF
KTOP 010520Z 0106/0206 17012KT P6SM VCTS BKN080CB
     FM010800 18009KT 3SM TSRA BR SCT010 OVC035CB
     FM011200 18008KT 6SM SHRA VCTS SCT015 OVC030CB
     FM011700 18009KT P6SM SCT030 BKN050
     FM012200 17010KT P6SM VCTS SCT025 BKN040CB=

USA.gov is the U.S. government's official web portal to all federal, state and local government web resources and services.